Time;durP1;ratioP1;P1;durP2;ratioP2;P2;SDS_P1;SDS_P2;PMS_P1;PMS_P2;Temp;Humidity;BMP_temperature;BMP_pressure;BME280_temperature;BME280_humidity;BME280_pressure;Samples;Min_cycle;Max_cycle;Signal;HPM_P1;HPM_P2
2023/10/08 00:01:03;;;;;;;24.30;8.00;;;;;;;10.07;100.00;100612.58;110650;1214;139368;-62
2023/10/08 00:03:29;;;;;;;20.90;7.30;;;;;;;10.07;100.00;100623.98;110853;1209;107451;-62
2023/10/08 00:05:55;;;;;;;15.90;7.30;;;;;;;10.08;100.00;100634.64;110650;1209;141096;-62
2023/10/08 00:08:21;;;;;;;21.60;8.60;;;;;;;10.10;100.00;100639.04;110980;1214;99024;-63
2023/10/08 00:10:47;;;;;;;30.30;9.50;;;;;;;10.12;100.00;100644.34;110975;1209;99473;-63
2023/10/08 00:13:17;;;;;;;32.90;9.00;;;;;;;10.13;100.00;100645.19;110557;1214;141061;-62
2023/10/08 00:15:53;;;;;;;27.60;9.10;;;;;;;10.15;100.00;100645.09;110805;1213;99100;-62
2023/10/08 00:18:20;;;;;;;38.50;9.10;;;;;;;10.16;100.00;100640.77;110703;1214;140236;-63
2023/10/08 00:20:55;;;;;;;29.20;9.70;;;;;;;10.16;100.00;100647.75;110859;1214;99003;-63
2023/10/08 00:23:22;;;;;;;32.80;10.30;;;;;;;10.16;100.00;100648.81;110814;1214;100000;-62
2023/10/08 00:25:50;;;;;;;30.70;10.20;;;;;;;10.16;100.00;100643.82;110822;1214;99031;-61
2023/10/08 00:28:17;;;;;;;37.90;12.00;;;;;;;10.16;100.00;100647.73;110904;1215;99139;-60
2023/10/08 00:30:44;;;;;;;29.80;12.60;;;;;;;10.17;100.00;100650.36;110716;1214;139901;-61
2023/10/08 00:33:11;;;;;;;26.70;11.20;;;;;;;10.17;100.00;100649.65;110880;1209;98949;-60
2023/10/08 00:35:41;;;;;;;32.40;10.90;;;;;;;10.17;100.00;100646.98;110679;1209;139807;-61
2023/10/08 00:38:14;;;;;;;25.90;11.10;;;;;;;10.18;100.00;100650.17;110982;1212;107440;-61
2023/10/08 00:40:40;;;;;;;40.60;11.30;;;;;;;10.18;100.00;100647.49;110845;1214;98945;-61
2023/10/08 00:43:10;;;;;;;35.70;10.60;;;;;;;10.18;100.00;100643.73;110702;1212;139279;-62
2023/10/08 00:45:43;;;;;;;34.20;11.30;;;;;;;10.19;100.00;100642.61;110808;1225;112648;-61
2023/10/08 00:48:16;;;;;;;33.20;11.90;;;;;;;10.21;100.00;100663.11;110677;1214;140547;-62
2023/10/08 00:50:44;;;;;;;28.30;11.10;;;;;;;10.21;100.00;100665.95;110835;1214;107812;-61
2023/10/08 00:53:38;;;;;;;37.40;11.60;;;;;;;10.22;100.00;100659.48;110771;1210;99004;-61
2023/10/08 00:56:04;;;;;;;37.50;12.90;;;;;;;10.24;100.00;100650.13;110752;1214;98898;-61
2023/10/08 00:58:33;;;;;;;40.90;13.10;;;;;;;10.24;100.00;100647.98;110824;1210;112937;-61
2023/10/08 01:01:00;;;;;;;44.40;13.10;;;;;;;10.24;100.00;100636.38;110665;1213;139496;-61
2023/10/08 01:03:29;;;;;;;29.20;12.00;;;;;;;10.25;100.00;100628.81;110878;1209;98981;-61
2023/10/08 01:06:00;;;;;;;44.20;13.50;;;;;;;10.26;100.00;100626.29;110676;1209;141167;-61
2023/10/08 01:08:36;;;;;;;29.30;12.60;;;;;;;10.26;100.00;100630.02;110799;1209;98949;-61
2023/10/08 01:11:46;;;;;;;36.90;13.20;;;;;;;10.26;100.00;100658.08;110698;1212;113029;-61
2023/10/08 01:14:09;;;;;;;42.90;14.50;;;;;;;10.24;100.00;100653.50;110824;1210;100053;-61
2023/10/08 01:16:35;;;;;;;36.40;13.70;;;;;;;10.23;100.00;100651.55;110764;1208;99037;-61
2023/10/08 01:19:00;;;;;;;42.10;14.00;;;;;;;10.23;100.00;100660.85;110695;1213;140127;-61
2023/10/08 01:21:39;;;;;;;36.80;14.30;;;;;;;10.22;100.00;100672.35;110770;1210;98973;-61
2023/10/08 01:24:06;;;;;;;42.20;14.60;;;;;;;10.22;100.00;100662.15;110716;1210;140559;-61
2023/10/08 01:26:33;;;;;;;33.90;14.50;;;;;;;10.22;100.00;100664.66;110683;1211;99072;-61
2023/10/08 01:29:07;;;;;;;44.00;14.00;;;;;;;10.20;100.00;100675.82;111011;1209;99620;-62
2023/10/08 01:31:33;;;;;;;29.10;12.10;;;;;;;10.20;100.00;100682.06;110653;1212;140324;-61
2023/10/08 01:33:58;;;;;;;26.30;12.20;;;;;;;10.19;100.00;100685.99;110706;1209;98977;-61
2023/10/08 01:36:26;;;;;;;36.40;11.60;;;;;;;10.18;100.00;100676.41;110783;1215;141517;-61
2023/10/08 01:38:51;;;;;;;35.90;11.80;;;;;;;10.16;100.00;100687.40;110809;1209;99635;-62
2023/10/08 01:41:30;;;;;;;32.10;11.90;;;;;;;10.14;100.00;100698.91;110704;1214;99140;-61
2023/10/08 01:43:57;;;;;;;24.30;9.80;;;;;;;10.14;100.00;100712.29;110703;1214;139795;-61
2023/10/08 01:46:25;;;;;;;27.30;10.60;;;;;;;10.13;100.00;100730.70;110753;1209;98933;-61
2023/10/08 01:48:55;;;;;;;32.20;10.50;;;;;;;10.10;100.00;100741.34;110768;1211;140782;-61
2023/10/08 01:51:35;;;;;;;31.40;10.20;;;;;;;10.09;100.00;100749.44;110803;1213;98966;-63
2023/10/08 01:54:02;;;;;;;22.60;10.20;;;;;;;10.06;100.00;100753.27;110582;1214;140192;-62
2023/10/08 01:56:28;;;;;;;26.70;9.70;;;;;;;10.04;100.00;100761.06;110832;1214;100248;-61
2023/10/08 01:58:53;;;;;;;22.10;8.80;;;;;;;10.02;100.00;100760.96;110795;1210;101159;-61
2023/10/08 02:01:22;;;;;;;23.30;9.20;;;;;;;9.99;100.00;100759.81;110657;1209;139369;-61
2023/10/08 02:03:48;;;;;;;25.40;10.80;;;;;;;9.97;100.00;100759.38;110893;1214;99007;-61
2023/10/08 02:06:13;;;;;;;29.20;9.90;;;;;;;9.96;100.00;100761.21;110697;1209;140183;-61
2023/10/08 02:08:38;;;;;;;22.00;9.40;;;;;;;9.94;100.00;100758.41;110821;1209;99956;-61
2023/10/08 02:11:04;;;;;;;24.20;8.60;;;;;;;9.92;100.00;100774.36;110757;1214;99047;-61
2023/10/08 02:13:30;;;;;;;27.40;9.70;;;;;;;9.90;100.00;100782.31;110664;1214;138861;-61
2023/10/08 02:15:56;;;;;;;25.10;9.90;;;;;;;9.89;100.00;100778.96;110797;1214;99105;-62
2023/10/08 02:18:23;;;;;;;20.00;8.00;;;;;;;9.87;100.00;100768.67;110627;1209;138947;-61
2023/10/08 02:20:48;;;;;;;33.60;10.60;;;;;;;9.85;100.00;100764.66;110784;1211;99619;-61
2023/10/08 02:23:14;;;;;;;25.70;11.30;;;;;;;9.82;100.00;100775.31;110783;1214;99008;-61
2023/10/08 02:25:40;;;;;;;26.50;10.90;;;;;;;9.82;100.00;100787.11;110737;1209;138988;-61
2023/10/08 02:28:08;;;;;;;22.60;9.50;;;;;;;9.81;100.00;100786.61;110718;1214;98964;-62
2023/10/08 02:30:34;;;;;;;21.80;10.20;;;;;;;9.80;100.00;100784.13;110725;1211;139664;-61
2023/10/08 02:33:00;;;;;;;24.10;8.90;;;;;;;9.78;100.00;100789.03;110797;1210;99799;-61
2023/10/08 02:35:27;;;;;;;28.80;9.70;;;;;;;9.77;100.00;100820.46;110883;1214;99052;-61
2023/10/08 02:37:54;;;;;;;25.20;10.60;;;;;;;9.77;100.00;100828.31;110656;1214;140437;-62
2023/10/08 02:40:26;;;;;;;24.90;10.10;;;;;;;9.78;100.00;100838.11;110767;1213;99391;-61
2023/10/08 02:42:58;;;;;;;29.50;9.90;;;;;;;9.77;100.00;100817.98;110716;1214;140043;-63
2023/10/08 02:45:25;;;;;;;25.70;8.60;;;;;;;9.75;100.00;100796.27;110730;1214;113289;-61
2023/10/08 02:47:52;;;;;;;23.20;9.50;;;;;;;9.72;100.00;100789.77;110650;1209;139969;-61
2023/10/08 02:50:18;;;;;;;24.70;9.20;;;;;;;9.72;100.00;100800.50;110743;1214;99091;-62
2023/10/08 02:52:46;;;;;;;26.00;8.30;;;;;;;9.70;100.00;100833.03;110823;1214;99024;-62
2023/10/08 02:55:24;;;;;;;26.00;8.80;;;;;;;9.69;100.00;100838.05;110645;1209;139601;-61
2023/10/08 02:57:50;;;;;;;25.30;8.50;;;;;;;9.68;100.00;100842.23;110794;1214;112985;-62
2023/10/08 03:00:19;;;;;;;21.80;8.40;;;;;;;9.66;100.00;100859.23;110650;1213;139365;-61
2023/10/08 03:02:46;;;;;;;18.30;7.70;;;;;;;9.65;100.00;100860.89;110760;1214;107884;-61
2023/10/08 03:05:16;;;;;;;18.50;7.90;;;;;;;9.63;100.00;100845.06;110741;1213;98987;-61
2023/10/08 03:07:41;;;;;;;26.50;7.90;;;;;;;9.62;100.00;100861.16;110815;1209;139663;-62
2023/10/08 03:10:16;;;;;;;26.00;8.70;;;;;;;9.60;100.00;100876.39;110765;1214;99025;-62
2023/10/08 03:12:43;;;;;;;22.90;8.20;;;;;;;9.59;100.00;100879.29;110728;1210;139011;-62
2023/10/08 03:15:28;;;;;;;21.40;8.30;;;;;;;9.60;100.00;100894.08;110731;1209;99031;-61
2023/10/08 03:17:57;;;;;;;17.10;7.70;;;;;;;9.59;100.00;100898.55;110586;1225;139626;-61
2023/10/08 03:23:23;;;;;;;30.90;9.20;;;;;;;9.55;100.00;100888.53;110710;1214;113887;-62
2023/10/08 03:26:11;;;;;;;18.70;7.30;;;;;;;9.51;100.00;100883.50;110703;1214;139580;-62
2023/10/08 03:28:38;;;;;;;29.30;8.50;;;;;;;9.48;100.00;100873.64;110768;1214;108040;-62
2023/10/08 03:31:04;;;;;;;14.50;6.80;;;;;;;9.44;100.00;100882.14;110858;1209;139590;-61
2023/10/08 03:33:34;;;;;;;22.60;6.40;;;;;;;9.41;100.00;100891.67;110848;1209;99395;-62
2023/10/08 03:36:22;;;;;;;20.90;6.40;;;;;;;9.39;100.00;100900.50;110647;1209;139766;-62
2023/10/08 03:38:51;;;;;;;18.70;5.80;;;;;;;9.35;100.00;100904.92;110791;1213;100027;-62
2023/10/08 03:41:18;;;;;;;20.30;5.70;;;;;;;9.30;100.00;100907.78;110952;1214;107837;-62
2023/10/08 03:43:52;;;;;;;12.30;5.60;;;;;;;9.25;100.00;100920.24;110600;1214;139629;-62
2023/10/08 03:46:21;;;;;;;22.80;5.40;;;;;;;9.21;100.00;100921.63;110690;1208;97884;-62
2023/10/08 03:48:46;;;;;;;14.00;5.80;;;;;;;9.17;100.00;100919.09;110656;1214;140432;-62
2023/10/08 03:51:12;;;;;;;15.30;4.30;;;;;;;9.13;100.00;100918.16;110796;1213;98938;-62
2023/10/08 03:53:58;;;;;;;25.60;6.30;;;;;;;9.08;100.00;100925.44;110813;1214;139553;-62
2023/10/08 03:56:31;;;;;;;15.60;4.20;;;;;;;9.04;100.00;100933.61;110826;1213;99364;-62
2023/10/08 03:59:00;;;;;;;12.60;4.20;;;;;;;8.98;100.00;100930.58;110809;1208;112517;-62
2023/10/08 04:01:31;;;;;;;14.30;4.00;;;;;;;8.92;100.00;100933.44;110638;1209;140845;-62
2023/10/08 04:04:00;;;;;;;12.00;4.70;;;;;;;8.88;100.00;100938.41;110812;1213;107911;-62
2023/10/08 04:06:31;;;;;;;12.10;3.90;;;;;;;8.82;100.00;100942.88;110799;1210;141921;-62
2023/10/08 04:11:43;;;;;;;20.40;5.20;;;;;;;8.73;100.00;100961.66;110597;1214;139146;-61
2023/10/08 04:14:08;;;;;;;17.20;4.60;;;;;;;8.69;100.00;100969.27;110798;1209;99974;-62
2023/10/08 04:16:37;;;;;;;19.20;4.60;;;;;;;8.66;100.00;100978.30;110819;1208;98981;-61
2023/10/08 04:19:05;;;;;;;19.60;5.40;;;;;;;8.61;100.00;100989.63;110655;1213;138859;-61
2023/10/08 04:21:33;;;;;;;23.10;5.00;;;;;;;8.58;100.00;100997.40;110820;1209;98944;-62
2023/10/08 04:24:03;;;;;;;14.20;4.60;;;;;;;8.54;100.00;101000.19;110707;1209;139338;-62
2023/10/08 04:26:31;;;;;;;14.60;4.30;;;;;;;8.46;100.00;101006.11;110882;1210;100005;-61
2023/10/08 04:28:57;;;;;;;11.60;3.70;;;;;;;8.41;100.00;101017.30;110779;1214;107458;-61
2023/10/08 04:31:36;;;;;;;10.60;4.10;;;;;;;8.36;100.00;101027.60;110740;1211;141212;-62
2023/10/08 04:34:06;;;;;;;7.20;2.60;;;;;;;8.29;100.00;101033.82;110757;1213;99085;-62
2023/10/08 04:36:32;;;;;;;10.70;2.90;;;;;;;8.24;100.00;101032.02;110675;1214;138978;-62
2023/10/08 04:39:04;;;;;;;12.00;2.80;;;;;;;8.17;100.00;101041.44;110780;1209;98874;-62
2023/10/08 04:41:29;;;;;;;14.60;2.20;;;;;;;8.13;100.00;101050.45;110772;1214;108438;-62
2023/10/08 04:43:55;;;;;;;9.90;3.20;;;;;;;8.09;100.00;101063.20;110587;1214;140367;-61
2023/10/08 04:49:07;;;;;;;12.80;3.60;;;;;;;8.02;100.00;101068.52;110622;1212;138668;-62
2023/10/08 04:51:43;;;;;;;13.30;3.00;;;;;;;8.00;100.00;101074.98;110814;1212;107851;-62
2023/10/08 04:54:16;;;;;;;8.10;2.20;;;;;;;7.98;100.00;101080.76;110577;1209;141044;-62
2023/10/08 04:56:42;;;;;;;7.80;2.10;;;;;;;7.94;100.00;101089.39;110776;1213;99031;-62
2023/10/08 04:59:11;;;;;;;11.40;2.40;;;;;;;7.89;100.00;101090.41;110689;1209;99063;-62
2023/10/08 05:02:02;;;;;;;11.60;2.70;;;;;;;7.85;100.00;101089.27;110416;1211;139956;-62
2023/10/08 05:04:32;;;;;;;;;;;;;;;7.80;100.00;101099.02;110783;1214;109276;-62
2023/10/08 05:07:14;;;;;;;6.00;2.10;;;;;;;7.73;100.00;101101.49;110655;1209;126513;-62
2023/10/08 05:09:47;;;;;;;12.70;2.70;;;;;;;7.69;100.00;101107.13;110755;1214;99018;-62
2023/10/08 05:12:34;;;;;;;10.70;1.90;;;;;;;7.65;100.00;101111.84;110609;1213;142827;-62
2023/10/08 05:26:08;;;;;;;4.60;1.40;;;;;;;7.42;100.00;101149.36;110684;1210;138841;-62
2023/10/08 05:29:00;;;;;;;9.80;1.50;;;;;;;7.39;100.00;101155.30;110815;1214;100095;-62
2023/10/08 05:34:32;;;;;;;9.20;1.90;;;;;;;7.32;100.00;101164.88;110716;1216;98959;-62
2023/10/08 05:42:05;;;;;;;4.70;1.60;;;;;;;7.26;100.00;101180.83;110770;1209;138973;-62
2023/10/08 05:44:39;;;;;;;6.40;1.60;;;;;;;7.24;100.00;101187.46;110778;1209;99028;-62
2023/10/08 05:52:50;;;;;;;3.60;1.30;;;;;;;7.21;100.00;101198.54;110757;1214;100895;-62
2023/10/08 05:55:25;;;;;;;3.00;1.20;;;;;;;7.21;100.00;101201.56;110662;1214;139938;-62
2023/10/08 05:58:02;;;;;;;3.80;1.20;;;;;;;7.18;100.00;101208.73;110741;1209;99026;-63
2023/10/08 06:00:46;;;;;;;7.00;1.40;;;;;;;7.17;100.00;101217.09;110678;1213;139009;-62
2023/10/08 06:03:31;;;;;;;11.80;4.60;;;;;;;7.16;100.00;101222.98;110787;1213;112740;-62
2023/10/08 06:06:22;;;;;;;7.10;1.30;;;;;;;7.16;100.00;101229.92;110653;1214;139771;-62
2023/10/08 06:12:06;;;;;;;5.20;1.80;;;;;;;7.18;100.00;101243.92;110642;1212;139382;-63
2023/10/08 06:17:34;;;;;;;9.40;1.40;;;;;;;7.18;100.00;101241.61;110689;1214;112866;-62
2023/10/08 06:20:09;;;;;;;6.70;1.90;;;;;;;7.20;100.00;101246.19;110744;1214;100462;-62
2023/10/08 06:22:35;;;;;;;7.50;1.60;;;;;;;7.22;100.00;101255.75;110696;1214;107899;-62
2023/10/08 06:25:17;;;;;;;5.20;1.70;;;;;;;7.24;100.00;101262.64;110737;1209;138855;-62
2023/10/08 06:27:44;;;;;;;9.40;1.70;;;;;;;7.27;100.00;101265.95;110719;1209;98698;-62
2023/10/08 06:30:16;;;;;;;5.80;1.60;;;;;;;7.30;100.00;101274.96;110596;1214;139328;-62
2023/10/08 06:32:44;;;;;;;4.90;2.10;;;;;;;7.31;100.00;101282.05;110662;1209;99870;-62
2023/10/08 06:35:17;;;;;;;7.60;2.50;;;;;;;7.33;100.00;101285.39;110696;1214;107876;-62
2023/10/08 06:37:49;;;;;;;8.20;1.60;;;;;;;7.36;100.00;101294.05;110644;1210;139367;-63
2023/10/08 06:43:03;;;;;;;7.90;1.90;;;;;;;7.41;100.00;101310.11;110627;1210;139808;-63
2023/10/08 06:45:32;;;;;;;4.90;2.10;;;;;;;7.45;100.00;101305.61;110756;1213;101188;-62
2023/10/08 06:47:57;;;;;;;4.60;1.70;;;;;;;7.48;100.00;101314.78;110574;1209;139216;-62
2023/10/08 06:50:23;;;;;;;6.10;1.80;;;;;;;7.52;100.00;101320.05;110793;1213;99017;-63
2023/10/08 06:52:49;;;;;;;4.50;1.90;;;;;;;7.56;100.00;101328.16;110866;1210;98984;-62
2023/10/08 06:55:17;;;;;;;11.60;2.20;;;;;;;7.59;100.00;101328.27;110574;1210;138923;-62
2023/10/08 06:57:42;;;;;;;5.30;1.40;;;;;;;7.63;100.00;101333.87;110742;1213;106677;-62
2023/10/08 07:00:33;;;;;;;3.10;0.90;;;;;;;7.67;100.00;101339.48;110527;1214;139858;-62
2023/10/08 07:02:57;;;;;;;3.80;1.20;;;;;;;7.73;100.00;101343.27;110730;1214;99628;-62
2023/10/08 07:05:22;;;;;;;19.10;2.00;;;;;;;7.79;100.00;101344.73;110748;1212;98954;-62
2023/10/08 07:07:47;;;;;;;3.70;1.40;;;;;;;7.84;100.00;101346.74;110708;1214;138954;-62
2023/10/08 07:10:12;;;;;;;5.90;1.40;;;;;;;7.89;100.00;101346.82;110753;1213;99025;-62
2023/10/08 07:12:39;;;;;;;6.20;2.00;;;;;;;7.94;100.00;101354.36;110753;1224;139489;-61
2023/10/08 07:15:11;;;;;;;6.70;1.50;;;;;;;8.00;100.00;101362.77;110760;1210;100075;-62
2023/10/08 07:17:40;;;;;;;6.80;1.40;;;;;;;8.05;100.00;101365.50;110652;1211;139799;-61
2023/10/08 07:20:21;;;;;;;2.90;1.30;;;;;;;8.08;100.00;101366.87;110703;1214;98955;-61
2023/10/08 07:22:50;;;;;;;5.30;2.60;;;;;;;8.12;100.00;101368.21;110819;1209;99403;-61
2023/10/08 07:25:19;;;;;;;5.60;1.60;;;;;;;8.16;100.00;101367.95;110657;1214;139564;-61
2023/10/08 07:27:44;;;;;;;6.10;1.50;;;;;;;8.20;100.00;101369.10;110841;1209;100110;-61
2023/10/08 07:30:10;;;;;;;7.30;2.30;;;;;;;8.25;100.00;101374.34;110574;1211;139696;-64
2023/10/08 07:32:38;;;;;;;4.70;1.70;;;;;;;8.31;100.00;101371.53;111061;1213;98955;-61
2023/10/08 07:35:25;;;;;;;3.90;2.60;;;;;;;8.36;100.00;101368.78;110751;1214;112479;-63
2023/10/08 07:37:53;;;;;;;4.80;1.30;;;;;;;8.41;100.00;101375.08;110646;1214;139891;-63
2023/10/08 07:40:20;;;;;;;4.00;1.30;;;;;;;8.45;100.00;101379.08;110722;1211;108044;-63
2023/10/08 07:42:51;;;;;;;1.50;1.10;;;;;;;8.51;100.00;101377.35;110640;1213;139898;-62
2023/10/08 07:45:18;;;;;;;5.20;1.70;;;;;;;8.54;100.00;101381.72;110823;1210;98690;-63
2023/10/08 07:47:44;;;;;;;3.80;1.20;;;;;;;8.58;100.00;101386.27;110592;1211;139766;-63
2023/10/08 07:50:13;;;;;;;5.30;1.10;;;;;;;8.63;100.00;101389.16;110634;1210;98985;-63
2023/10/08 07:52:38;;;;;;;2.50;0.80;;;;;;;8.67;100.00;101389.60;111067;1211;97958;-63
2023/10/08 07:55:07;;;;;;;2.30;1.00;;;;;;;8.71;100.00;101388.43;110647;1208;140211;-63
2023/10/08 07:57:33;;;;;;;2.40;1.40;;;;;;;8.76;100.00;101392.42;110759;1213;112547;-63
2023/10/08 08:00:18;;;;;;;5.40;1.10;;;;;;;8.81;100.00;101396.41;110578;1214;139704;-63
2023/10/08 08:02:44;;;;;;;1.90;0.90;;;;;;;8.83;100.00;101399.04;110605;1210;109219;-63
2023/10/08 08:05:09;;;;;;;4.80;1.50;;;;;;;8.89;100.00;101406.36;110986;1211;100530;-63
2023/10/08 08:07:34;;;;;;;3.00;1.10;;;;;;;8.92;100.00;101416.99;110617;1213;139578;-63
2023/10/08 08:09:59;;;;;;;3.10;0.70;;;;;;;8.89;100.00;101421.36;110602;1214;99630;-63
2023/10/08 08:12:28;;;;;;;2.00;0.90;;;;;;;8.91;100.00;101412.39;110635;1214;139070;-63
2023/10/08 08:14:53;;;;;;;6.80;0.80;;;;;;;8.96;100.00;101420.27;112776;1209;96773;-62
2023/10/08 08:17:18;;;;;;;3.80;0.80;;;;;;;9.03;100.00;101432.05;112751;1212;96861;-62
2023/10/08 08:19:49;;;;;;;1.60;0.90;;;;;;;9.02;98.74;101435.81;112673;1209;139781;-63
2023/10/08 08:22:21;;;;;;;1.20;0.70;;;;;;;9.07;99.28;101436.39;111792;1209;99003;-62
2023/10/08 08:25:02;;;;;;;2.60;0.40;;;;;;;9.09;96.40;101437.27;110957;1211;141596;-62
2023/10/08 08:27:33;;;;;;;1.00;0.40;;;;;;;9.12;96.21;101439.15;110705;1214;113043;-63
2023/10/08 08:30:10;;;;;;;4.20;1.50;;;;;;;9.19;95.62;101446.81;110571;1212;138921;-63
2023/10/08 08:32:39;;;;;;;1.30;0.60;;;;;;;9.19;88.90;101449.66;110775;1214;107750;-63
2023/10/08 08:35:11;;;;;;;1.30;0.60;;;;;;;9.23;88.64;101455.63;110774;1214;100252;-62
2023/10/08 08:37:40;;;;;;;0.50;0.40;;;;;;;9.29;87.77;101460.65;110604;1213;139581;-62
2023/10/08 08:40:21;;;;;;;2.10;0.50;;;;;;;9.32;87.73;101463.26;110782;1212;112343;-63
2023/10/08 08:42:48;;;;;;;2.30;0.60;;;;;;;9.36;87.27;101463.85;110615;1214;139598;-62
2023/10/08 08:45:20;;;;;;;0.70;0.50;;;;;;;9.41;87.45;101468.02;110823;1211;98940;-61
2023/10/08 08:47:45;;;;;;;2.50;0.90;;;;;;;9.47;87.64;101472.70;110780;1214;139198;-62
2023/10/08 08:50:11;;;;;;;3.90;0.60;;;;;;;9.50;86.67;101475.45;110620;1214;99020;-60
2023/10/08 08:52:40;;;;;;;7.00;0.80;;;;;;;9.52;85.38;101482.19;110483;1210;98963;-60
2023/10/08 08:55:13;;;;;;;2.50;1.10;;;;;;;9.56;85.93;101486.02;110605;1214;139068;-60
2023/10/08 08:57:39;;;;;;;4.30;1.20;;;;;;;9.62;84.60;101489.78;110616;1214;99043;-60
2023/10/08 09:00:12;;;;;;;1.50;0.50;;;;;;;9.61;83.09;101492.11;110636;1214;139325;-60
2023/10/08 09:02:38;;;;;;;3.20;0.70;;;;;;;9.62;81.06;101492.80;110687;1214;112926;-60
2023/10/08 09:05:13;;;;;;;1.40;0.40;;;;;;;9.70;82.00;101492.41;110635;1211;99002;-60
2023/10/08 09:08:10;;;;;;;4.60;0.60;;;;;;;9.71;80.16;101487.92;110543;1214;139283;-61
2023/10/08 09:10:38;;;;;;;0.90;0.20;;;;;;;9.74;79.10;101494.28;110347;1211;98960;-60
2023/10/08 09:13:09;;;;;;;0.50;0.20;;;;;;;9.75;76.78;101487.45;110505;1223;139203;-60
2023/10/08 09:15:36;;;;;;;4.40;0.50;;;;;;;9.77;76.80;101488.14;110477;1212;112796;-62
2023/10/08 09:18:06;;;;;;;1.20;0.50;;;;;;;9.84;78.35;101490.81;110416;1211;138663;-61
2023/10/08 09:20:35;;;;;;;3.00;0.70;;;;;;;9.91;79.52;101489.90;110662;1212;108494;-62
2023/10/08 09:23:17;;;;;;;0.60;0.40;;;;;;;9.99;79.57;101490.37;110579;1211;98950;-61
2023/10/08 09:25:44;;;;;;;2.90;0.50;;;;;;;10.04;75.50;101497.20;110718;1211;138642;-61
2023/10/08 09:28:12;;;;;;;1.00;0.30;;;;;;;10.11;75.09;101500.44;110678;1214;99018;-61
2023/10/08 09:30:39;;;;;;;1.80;0.60;;;;;;;10.14;75.59;101500.34;110545;1214;139030;-62
2023/10/08 09:33:09;;;;;;;2.10;0.80;;;;;;;10.21;76.30;101502.46;110550;1214;99010;-62
2023/10/08 09:35:36;;;;;;;1.70;0.70;;;;;;;10.24;75.26;101500.79;110658;1212;140054;-65
2023/10/08 09:38:03;;;;;;;1.00;0.40;;;;;;;10.27;75.44;101507.85;110726;1210;98231;-61
2023/10/08 09:40:29;;;;;;;1.40;0.70;;;;;;;10.26;74.87;101500.21;110804;1214;99050;-62
2023/10/08 09:42:55;;;;;;;3.30;0.50;;;;;;;10.29;75.54;101505.84;110772;1214;138746;-61
2023/10/08 09:45:21;;;;;;;2.90;0.80;;;;;;;10.39;75.39;101506.80;110801;1214;99050;-62
2023/10/08 09:47:53;;;;;;;2.40;0.50;;;;;;;10.41;75.40;101506.38;110691;1213;139452;-62
2023/10/08 09:50:27;;;;;;;2.30;0.40;;;;;;;10.41;74.37;101508.13;110789;1214;115630;-62
2023/10/08 09:53:04;;;;;;;0.80;0.30;;;;;;;10.43;72.73;101510.05;110766;1209;100030;-62
2023/10/08 09:55:29;;;;;;;0.90;0.40;;;;;;;10.44;72.74;101506.98;110651;1214;138953;-61
2023/10/08 09:57:55;;;;;;;2.50;0.50;;;;;;;10.49;72.85;101512.20;110674;1212;98959;-61
2023/10/08 10:00:30;;;;;;;2.20;0.60;;;;;;;10.54;73.57;101511.34;110650;1214;138987;-62
2023/10/08 10:03:01;;;;;;;0.40;0.30;;;;;;;10.59;73.04;101512.79;110690;1214;99848;-61
2023/10/08 10:05:30;;;;;;;;;;;;;;;10.60;71.32;101509.36;110802;1213;106805;-61
2023/10/08 10:07:56;;;;;;;1.80;0.80;;;;;;;10.63;70.01;101516.59;110622;1212;125305;-61
2023/10/08 10:10:26;;;;;;;3.10;0.70;;;;;;;10.65;68.11;101510.83;110698;1211;99190;-61
2023/10/08 10:12:52;;;;;;;1.90;0.50;;;;;;;10.67;65.73;101517.55;110619;1221;139058;-62
2023/10/08 10:15:21;;;;;;;1.20;0.40;;;;;;;10.77;67.43;101518.33;110611;1214;99119;-62
2023/10/08 10:17:47;;;;;;;0.80;0.70;;;;;;;10.85;65.31;101518.08;112657;1211;139470;-63
2023/10/08 10:20:13;;;;;;;5.20;0.70;;;;;;;10.88;66.07;101519.77;110677;1209;98948;-62
2023/10/08 10:22:39;;;;;;;1.00;0.40;;;;;;;10.92;64.46;101524.65;110730;1211;99082;-62
2023/10/08 10:25:17;;;;;;;6.80;0.60;;;;;;;10.98;64.43;101524.64;110381;1216;139462;-62
2023/10/08 10:28:06;;;;;;;1.20;0.40;;;;;;;11.02;65.13;101531.86;110640;1214;108046;-62
2023/10/08 10:30:32;;;;;;;2.00;0.90;;;;;;;11.09;66.08;101530.23;110345;1224;139484;-63
2023/10/08 10:33:00;;;;;;;2.10;0.40;;;;;;;11.14;66.32;101523.44;110575;1214;99951;-63
2023/10/08 10:35:27;;;;;;;1.50;0.40;;;;;;;11.22;63.97;101517.65;110807;1209;98945;-62
2023/10/08 10:37:55;;;;;;;0.70;0.30;;;;;;;11.23;62.46;101513.48;110564;1214;139830;-63
2023/10/08 10:40:29;;;;;;;1.40;0.70;;;;;;;11.28;61.10;101519.77;110700;1209;98963;-63
2023/10/08 10:42:58;;;;;;;2.40;0.30;;;;;;;11.38;61.02;101523.55;110512;1213;139061;-62
2023/10/08 10:45:35;;;;;;;0.60;0.30;;;;;;;11.43;58.34;101521.98;110820;1210;99212;-62
2023/10/08 10:48:21;;;;;;;0.30;0.30;;;;;;;11.47;59.85;101521.84;110560;1212;138220;-61
2023/10/08 10:51:07;;;;;;;1.50;0.60;;;;;;;11.63;61.53;101524.33;110707;1210;100146;-62
2023/10/08 10:53:44;;;;;;;0.50;0.40;;;;;;;11.81;62.08;101525.36;110772;1214;108211;-62
2023/10/08 10:56:18;;;;;;;1.50;0.60;;;;;;;11.91;61.99;101521.42;110653;1213;100228;-62
2023/10/08 10:58:45;;;;;;;1.90;0.70;;;;;;;12.05;61.63;101522.04;110637;1215;100325;-62
2023/10/08 11:01:26;;;;;;;0.60;0.40;;;;;;;12.19;61.35;101515.60;110571;1214;138794;-63
2023/10/08 11:03:52;;;;;;;0.90;0.50;;;;;;;12.21;60.17;101524.50;110731;1209;100099;-62
2023/10/08 11:06:22;;;;;;;0.80;0.40;;;;;;;12.19;57.77;101527.96;110521;1214;139387;-62
2023/10/08 11:08:50;;;;;;;2.10;0.90;;;;;;;12.20;57.64;101521.13;110449;1218;99767;-63
2023/10/08 11:11:27;;;;;;;4.50;0.70;;;;;;;12.19;57.28;101522.75;110576;1210;99258;-63
2023/10/08 11:14:00;;;;;;;1.80;0.80;;;;;;;12.24;58.18;101528.33;110629;1225;138535;-62
2023/10/08 11:16:26;;;;;;;1.60;0.50;;;;;;;12.32;58.25;101520.33;110753;1213;100071;-63
2023/10/08 11:18:51;;;;;;;2.30;0.80;;;;;;;12.46;58.73;101519.09;110598;1212;139123;-62
2023/10/08 11:21:22;;;;;;;2.30;0.80;;;;;;;12.57;58.66;101515.77;110749;1210;99010;-63
2023/10/08 11:23:59;;;;;;;1.10;0.60;;;;;;;12.82;60.06;101523.27;110694;1213;139343;-63
2023/10/08 11:26:32;;;;;;;3.90;0.70;;;;;;;12.91;59.56;101524.35;110760;1212;100447;-62
2023/10/08 11:29:00;;;;;;;0.80;0.50;;;;;;;12.78;58.58;101523.23;110785;1214;108109;-62
2023/10/08 11:31:28;;;;;;;2.10;0.70;;;;;;;12.75;59.57;101529.65;110759;1210;140779;-64
2023/10/08 11:33:59;;;;;;;2.30;0.90;;;;;;;12.79;59.42;101523.77;110961;1209;99015;-63
2023/10/08 11:36:27;;;;;;;2.50;0.70;;;;;;;12.80;59.83;101515.98;110749;1215;138344;-61
2023/10/08 11:39:06;;;;;;;2.30;0.70;;;;;;;12.76;59.05;101510.95;110885;1214;99044;-62
2023/10/08 11:41:35;;;;;;;2.50;0.50;;;;;;;12.59;59.14;101511.92;110869;1215;107526;-61
2023/10/08 11:44:03;;;;;;;0.90;0.40;;;;;;;12.54;59.96;101516.97;110667;1226;138441;-61
2023/10/08 11:46:39;;;;;;;1.60;0.90;;;;;;;12.55;58.96;101516.23;110882;1214;99032;-61
2023/10/08 11:49:05;;;;;;;3.30;0.70;;;;;;;12.51;59.85;101515.64;110712;1214;138004;-61
2023/10/08 11:51:35;;;;;;;0.70;0.40;;;;;;;12.69;59.72;101513.38;110910;1214;98953;-64
2023/10/08 11:54:02;;;;;;;1.80;0.70;;;;;;;12.83;59.68;101515.16;110759;1214;138774;-61
2023/10/08 11:56:32;;;;;;;0.50;0.50;;;;;;;12.89;59.36;101519.93;110850;1210;99003;-61
2023/10/08 11:58:57;;;;;;;1.10;0.40;;;;;;;12.93;57.35;101519.79;110797;1214;99147;-61
2023/10/08 12:01:27;;;;;;;1.20;0.60;;;;;;;13.03;56.57;101521.88;110686;1215;138362;-63
2023/10/08 12:03:57;;;;;;;1.70;0.70;;;;;;;13.00;55.93;101527.02;110798;1210;100393;-64